Forside
METAR-TAF:

METAR-TAF

Lufthavne :

Nagpur, Indien

Breddekreds: 21-06N, længdekreds: 079-03E, højde: 308 m

Aktuelle vejr

Denne rapport blev lavet for 16 minutter siden, kl. 21:30 UTC
Vind stille
Temperatur 16°C
Fugtighed 72%
Tryk 1013 hPa
Sigt: 4000 m
dis

METAR: VANP 262130Z 00000KT 4000 BR NSC 16/11 Q1013 BECMG 3000 BR

Tid: 03:16 (21:46 UTC)

Vejrudsigter

Denne rapport blev lavet for 1 time og 46 minutter siden, kl. 20:00 UTC
Foreløbig gælder fra 26 på 21 UTC til 27 på 06 UTC
Vind kt fra nord
Sigt: 3000 m
dis
ændring
fra 27 på 00 UTC til 27 på 02 UTC
Sigt: 2000 m
dis
ændring
fra 27 på 04 UTC til 27 på 05 UTC
Vind 5 kt fra øst
Sigt: 4000 m
tåge/dis

TAF: VANP 262000Z 2621/2706 00000KT 3000 BR NSC BECMG 2700/2702 2000 BR BECMG 2704/2705 09005KT 4000 HZ

Vejrobservationer og prognoser fra mere end 4000 lufthavne (METAR og TAF).

De gule og røde prikker repræsenterer de meteorologiske stationer.

Flyt musen over at se navnet på stationen.

Så klik over at se vejr observationer og prognoser.

At skifte det kort: Klik på de grønne knapper med et sort kors for at zoome ind; på den grønne knap med en bindestreg for at zoome ud; eller på de grønne pile for tilstødende kort.


METAR-TAF: